Time;durP1;ratioP1;P1;durP2;ratioP2;P2;SDS_P1;SDS_P2;PMS_P1;PMS_P2;Temp;Humidity;BMP_temperature;BMP_pressure;BME280_temperature;BME280_humidity;BME280_pressure;Samples;Min_cycle;Max_cycle;Signal;HPM_P1;HPM_P2
2022/11/12 00:01:04;;;;;;;11.47;6.93;;;8.30;86.20;;;;;;5104293;28;20444;-67
2022/11/12 00:03:32;;;;;;;10.00;6.30;;;8.20;86.20;;;;;;5104683;28;20475;-67
2022/11/12 00:05:59;;;;;;;6.90;5.63;;;8.20;86.30;;;;;;5104911;28;20437;-67
2022/11/12 00:08:26;;;;;;;9.10;6.63;;;8.20;86.10;;;;;;5104448;28;20451;-67
2022/11/12 00:10:53;;;;;;;7.33;6.33;;;8.20;86.00;;;;;;5104669;28;20454;-67
2022/11/12 00:13:19;;;;;;;7.33;6.30;;;8.20;86.00;;;;;;5104701;28;20472;-67
2022/11/12 00:15:47;;;;;;;9.23;6.27;;;8.20;86.10;;;;;;5105109;28;20432;-67
2022/11/12 00:18:13;;;;;;;6.90;6.30;;;8.20;86.30;;;;;;5107831;28;20449;-67
2022/11/12 00:20:42;;;;;;;8.30;6.73;;;8.20;86.20;;;;;;5107665;28;20444;-67
2022/11/12 00:23:08;;;;;;;8.10;7.13;;;8.20;86.40;;;;;;5106764;28;20460;-67
2022/11/12 00:25:35;;;;;;;10.63;6.10;;;8.20;86.30;;;;;;5107426;28;20472;-67
2022/11/12 00:28:03;;;;;;;8.93;6.57;;;8.20;86.40;;;;;;5107044;28;20429;-67
2022/11/12 00:30:31;;;;;;;7.80;6.63;;;8.20;86.50;;;;;;5106695;28;20428;-67
2022/11/12 00:33:01;;;;;;;11.40;9.03;;;8.20;86.10;;;;;;5106607;28;20474;-67
2022/11/12 00:35:28;;;;;;;10.00;8.07;;;8.10;86.20;;;;;;5104341;28;20425;-67
2022/11/12 00:37:56;;;;;;;12.13;7.83;;;8.10;86.30;;;;;;5104221;28;20460;-67
2022/11/12 00:40:23;;;;;;;10.33;8.00;;;8.00;85.90;;;;;;5103902;28;20947;-67
2022/11/12 00:42:50;;;;;;;13.70;7.73;;;8.00;86.00;;;;;;5109686;28;20468;-66
2022/11/12 00:45:17;;;;;;;8.27;6.50;;;8.00;86.10;;;;;;5106681;28;20490;-66
2022/11/12 00:47:44;;;;;;;10.70;7.57;;;8.00;86.30;;;;;;5103675;28;20440;-66
2022/11/12 00:50:11;;;;;;;7.83;7.00;;;7.90;85.70;;;;;;5105395;28;20454;-66
2022/11/12 00:52:38;;;;;;;6.83;6.13;;;7.90;85.70;;;;;;5106084;28;20463;-66
2022/11/12 00:55:06;;;;;;;9.77;7.73;;;7.80;85.60;;;;;;5107542;28;20512;-66
2022/11/12 00:57:33;;;;;;;7.53;6.67;;;7.80;85.80;;;;;;5106811;28;20444;-67
2022/11/12 01:00:00;;;;;;;7.67;5.97;;;7.80;85.80;;;;;;5104266;28;20788;-67
2022/11/12 01:02:26;;;;;;;11.33;7.90;;;7.80;86.00;;;;;;5104387;28;20473;-67
2022/11/12 01:04:53;;;;;;;8.10;6.43;;;7.80;86.00;;;;;;5104224;28;20483;-67
2022/11/12 01:07:20;;;;;;;9.90;8.10;;;7.80;86.10;;;;;;5105598;28;20968;-67
2022/11/12 01:09:46;;;;;;;10.60;6.50;;;7.80;86.60;;;;;;5104146;28;20461;-67
2022/11/12 01:12:15;;;;;;;11.00;7.17;;;7.70;86.40;;;;;;5104154;28;20468;-67
2022/11/12 01:14:41;;;;;;;8.87;7.60;;;7.70;86.40;;;;;;5106011;28;20442;-67
2022/11/12 01:17:08;;;;;;;7.73;6.87;;;7.70;86.60;;;;;;5103512;28;20521;-67
2022/11/12 01:19:35;;;;;;;10.77;7.40;;;7.70;86.50;;;;;;5101329;28;20792;-66
2022/11/12 01:22:01;;;;;;;7.73;6.70;;;7.70;86.70;;;;;;5099886;28;20819;-66
2022/11/12 01:24:28;;;;;;;10.83;8.53;;;7.70;86.90;;;;;;5103175;28;20479;-66
2022/11/12 01:26:55;;;;;;;10.60;7.93;;;7.70;87.30;;;;;;5103069;28;20486;-66
2022/11/12 01:29:23;;;;;;;10.33;8.40;;;7.60;87.30;;;;;;5103698;28;20445;-66
2022/11/12 01:31:50;;;;;;;10.10;7.67;;;7.60;87.70;;;;;;5104187;28;20441;-67
2022/11/12 01:34:17;;;;;;;8.60;7.70;;;7.60;87.40;;;;;;5103586;28;20450;-66
2022/11/12 01:36:44;;;;;;;9.73;7.37;;;7.60;87.40;;;;;;5102673;28;20839;-66
2022/11/12 01:39:10;;;;;;;7.80;6.57;;;7.60;87.50;;;;;;5101621;28;20453;-66
2022/11/12 01:41:40;;;;;;;9.07;5.90;;;7.60;87.30;;;;;;5102825;28;20451;-66
2022/11/12 01:44:11;;;;;;;8.70;6.47;;;7.50;86.50;;;;;;5102803;28;20486;-66
2022/11/12 01:46:47;;;;;;;5.97;5.33;;;7.50;86.70;;;;;;5104517;28;20428;-66
2022/11/12 01:49:20;;;;;;;7.53;6.40;;;7.40;86.10;;;;;;5107978;28;20435;-66
2022/11/12 01:51:51;;;;;;;10.77;6.40;;;7.30;86.40;;;;;;5107300;28;20819;-66
2022/11/12 01:54:21;;;;;;;7.40;5.47;;;7.30;87.00;;;;;;5107456;28;20427;-66
2022/11/12 01:56:49;;;;;;;7.97;5.80;;;7.30;86.90;;;;;;5107509;28;20435;-66
2022/11/12 01:59:22;;;;;;;6.10;5.30;;;7.20;87.20;;;;;;5106689;28;20525;-66
2022/11/12 02:01:50;;;;;;;6.80;6.00;;;7.20;87.40;;;;;;5107526;28;20439;-66
2022/11/12 02:04:17;;;;;;;7.50;6.10;;;7.20;87.70;;;;;;5107037;28;20478;-66
2022/11/12 02:06:45;;;;;;;8.67;6.60;;;7.20;87.80;;;;;;5108499;28;20451;-67
2022/11/12 02:09:13;;;;;;;7.77;6.00;;;7.20;88.10;;;;;;5109108;28;20458;-66
2022/11/12 02:11:40;;;;;;;7.73;5.83;;;7.20;88.50;;;;;;5107648;28;20447;-66
2022/11/12 02:14:06;;;;;;;6.67;6.00;;;7.20;88.60;;;;;;5105180;28;20453;-66
2022/11/12 02:16:36;;;;;;;10.40;5.83;;;7.20;88.80;;;;;;5106059;28;20473;-66
2022/11/12 02:19:06;;;;;;;8.80;6.07;;;7.20;88.90;;;;;;5107367;28;20479;-66
2022/11/12 02:21:35;;;;;;;7.37;6.50;;;7.20;89.20;;;;;;5106013;28;20431;-66
2022/11/12 02:24:04;;;;;;;6.60;5.73;;;7.10;88.90;;;;;;5106888;28;20471;-66
2022/11/12 02:26:34;;;;;;;6.77;5.70;;;7.10;89.10;;;;;;5107915;28;20813;-66
2022/11/12 02:29:01;;;;;;;8.47;6.23;;;7.10;89.60;;;;;;5107262;28;20446;-66
2022/11/12 02:31:28;;;;;;;9.00;6.60;;;7.00;88.70;;;;;;5107118;28;20440;-66
2022/11/12 02:33:55;;;;;;;7.90;6.03;;;7.00;89.30;;;;;;5106625;28;20463;-67
2022/11/12 02:36:22;;;;;;;11.37;5.97;;;7.00;89.60;;;;;;5105708;28;20526;-66
2022/11/12 02:38:50;;;;;;;8.07;6.90;;;7.00;89.80;;;;;;5105253;28;20443;-66
2022/11/12 02:41:16;;;;;;;8.50;7.40;;;7.00;89.80;;;;;;5106023;28;20437;-66
2022/11/12 02:43:44;;;;;;;9.40;6.90;;;6.90;89.80;;;;;;5105910;28;20476;-66
2022/11/12 02:46:11;;;;;;;9.00;7.17;;;6.90;90.00;;;;;;5104835;28;20486;-66
2022/11/12 02:48:37;;;;;;;11.90;6.80;;;6.90;90.00;;;;;;5104999;28;20450;-66
2022/11/12 02:51:05;;;;;;;9.10;7.13;;;6.90;90.20;;;;;;5105714;28;20459;-66
2022/11/12 02:53:32;;;;;;;8.60;6.80;;;6.90;90.50;;;;;;5104988;28;20823;-67
2022/11/12 02:56:00;;;;;;;13.33;6.53;;;6.90;90.60;;;;;;5104380;28;20941;-67
2022/11/12 02:58:28;;;;;;;7.70;6.00;;;6.90;90.60;;;;;;5104996;28;20469;-67
2022/11/12 03:00:55;;;;;;;9.70;7.03;;;7.00;90.60;;;;;;5104759;28;20450;-66
2022/11/12 03:03:22;;;;;;;8.40;6.43;;;7.00;90.60;;;;;;5105995;28;20469;-67
2022/11/12 03:05:56;;;;;;;8.13;6.40;;;7.00;90.60;;;;;;5105974;28;20485;-66
2022/11/12 03:08:23;;;;;;;8.23;6.43;;;7.00;90.70;;;;;;5106632;28;20479;-66
2022/11/12 03:10:50;;;;;;;7.60;6.07;;;7.10;90.70;;;;;;5107423;28;20451;-66
2022/11/12 03:13:19;;;;;;;7.17;6.47;;;7.10;90.70;;;;;;5103580;28;20470;-66
2022/11/12 03:15:45;;;;;;;7.10;5.70;;;7.10;90.60;;;;;;5107439;28;20442;-67
2022/11/12 03:18:12;;;;;;;8.90;7.00;;;7.10;90.60;;;;;;5107430;28;20457;-66
2022/11/12 03:20:39;;;;;;;9.23;6.97;;;7.10;90.70;;;;;;5109917;28;20529;-66
2022/11/12 03:23:08;;;;;;;7.93;6.47;;;7.20;90.80;;;;;;5115378;28;20446;-66
2022/11/12 03:25:36;;;;;;;6.83;6.13;;;7.20;90.80;;;;;;5117020;28;20547;-66
2022/11/12 03:28:05;;;;;;;8.77;6.73;;;7.20;90.80;;;;;;5111569;28;20447;-66
2022/11/12 03:30:36;;;;;;;7.87;6.97;;;7.20;90.90;;;;;;5109587;28;20443;-66
2022/11/12 03:33:04;;;;;;;7.43;5.87;;;7.20;90.90;;;;;;5107745;28;20475;-66
2022/11/12 03:35:30;;;;;;;8.93;6.93;;;7.30;90.90;;;;;;5105337;28;20448;-67
2022/11/12 03:37:57;;;;;;;7.50;6.13;;;7.30;91.00;;;;;;5104337;28;20454;-66
2022/11/12 03:40:24;;;;;;;8.07;6.90;;;7.30;91.00;;;;;;5105076;28;20442;-66
2022/11/12 03:42:52;;;;;;;11.00;7.30;;;7.30;91.10;;;;;;5106541;28;20648;-66
2022/11/12 03:45:20;;;;;;;6.80;6.10;;;7.30;91.10;;;;;;5107357;28;20476;-66
2022/11/12 03:47:50;;;;;;;8.30;7.50;;;7.30;91.20;;;;;;5103457;28;20439;-66
2022/11/12 03:50:19;;;;;;;9.57;6.87;;;7.30;91.30;;;;;;5103877;28;20431;-66
2022/11/12 03:52:46;;;;;;;9.33;6.53;;;7.30;91.30;;;;;;5105882;28;20504;-66
2022/11/12 03:55:15;;;;;;;7.07;6.33;;;7.30;91.40;;;;;;5108157;28;20442;-66
2022/11/12 03:57:42;;;;;;;7.13;6.43;;;7.30;91.60;;;;;;5109021;28;20443;-66
2022/11/12 04:00:10;;;;;;;7.47;6.53;;;7.30;91.70;;;;;;5110182;28;20446;-66
2022/11/12 04:02:37;;;;;;;9.70;6.70;;;7.30;91.80;;;;;;5110050;28;20473;-66
2022/11/12 04:10:41;;;;;;;8.43;6.37;;;7.40;91.80;;;;;;5101715;28;20414;-66
2022/11/12 04:21:49;;;;;;;8.17;6.83;;;7.40;91.90;;;;;;5101265;28;20507;-66
2022/11/12 04:26:21;;;;;;;9.27;7.63;;;7.40;92.20;;;;;;5101075;28;20443;-66
2022/11/12 04:26:58;;;;;;;13.00;8.90;;;7.40;92.20;;;;;;5101455;28;20430;-66
2022/11/12 04:32:09;;;;;;;10.60;8.33;;;7.40;92.20;;;;;;5101628;28;20238;-65
2022/11/12 04:34:36;;;;;;;11.53;9.43;;;7.40;92.20;;;;;;5105131;28;20451;-66
2022/11/12 04:37:05;;;;;;;11.90;8.70;;;7.50;92.30;;;;;;5107714;28;20473;-66
2022/11/12 04:39:32;;;;;;;9.83;8.83;;;7.40;92.10;;;;;;5107977;28;20964;-66
2022/11/12 04:45:02;;;;;;;12.10;8.20;;;7.40;92.10;;;;;;5107030;28;20398;-66
2022/11/12 04:47:33;;;;;;;9.80;7.57;;;7.40;92.10;;;;;;5104618;28;20466;-66
2022/11/12 04:50:00;;;;;;;8.63;7.03;;;7.30;92.00;;;;;;5102883;28;20813;-66
2022/11/12 04:52:29;;;;;;;8.77;7.40;;;7.30;91.90;;;;;;5104288;28;20474;-66
2022/11/12 04:54:56;;;;;;;9.50;7.23;;;7.30;92.00;;;;;;5106430;28;20450;-66
2022/11/12 04:57:23;;;;;;;10.50;7.50;;;7.20;91.90;;;;;;5104680;28;20428;-66
2022/11/12 04:59:50;;;;;;;10.33;7.63;;;7.20;91.90;;;;;;5103730;28;20446;-66
2022/11/12 05:02:17;;;;;;;11.27;8.20;;;7.20;91.80;;;;;;5103266;28;20479;-66
2022/11/12 05:04:44;;;;;;;12.63;8.40;;;7.20;91.90;;;;;;5100523;28;20449;-66
2022/11/12 05:07:11;;;;;;;10.93;8.07;;;7.20;91.90;;;;;;5099364;28;20452;-66
2022/11/12 05:09:40;;;;;;;10.53;8.43;;;7.10;91.80;;;;;;5100518;28;21014;-66
2022/11/12 05:12:07;;;;;;;14.60;9.23;;;7.10;91.70;;;;;;5099371;28;20471;-67
2022/11/12 05:14:33;;;;;;;10.27;7.80;;;7.10;91.70;;;;;;5100829;28;20958;-66
2022/11/12 05:17:00;;;;;;;12.63;7.93;;;7.10;91.60;;;;;;5100875;28;20438;-66
2022/11/12 05:19:27;;;;;;;10.70;8.30;;;7.10;91.60;;;;;;5101327;28;20457;-66
2022/11/12 05:22:06;;;;;;;12.63;9.33;;;7.00;91.50;;;;;;5102220;28;20453;-66
2022/11/12 05:24:41;;;;;;;9.70;8.57;;;7.00;91.40;;;;;;5103788;28;20808;-66
2022/11/12 05:27:10;;;;;;;11.97;8.67;;;6.90;91.40;;;;;;5103952;28;20433;-66
2022/11/12 05:29:37;;;;;;;10.13;8.30;;;6.90;91.60;;;;;;5103533;28;20434;-66
2022/11/12 05:32:04;;;;;;;11.33;7.90;;;6.90;91.60;;;;;;5103237;28;20458;-66
2022/11/12 05:34:31;;;;;;;10.50;9.03;;;6.90;91.50;;;;;;5104144;28;20453;-66
2022/11/12 05:36:58;;;;;;;12.27;8.27;;;6.80;91.40;;;;;;5102971;28;20450;-66
2022/11/12 05:39:25;;;;;;;9.60;8.40;;;6.80;91.40;;;;;;5103847;28;20447;-66
2022/11/12 05:41:54;;;;;;;8.87;6.83;;;6.80;91.40;;;;;;5103235;28;20446;-67
2022/11/12 05:44:21;;;;;;;8.10;7.10;;;6.80;91.40;;;;;;5103206;28;20446;-66
2022/11/12 05:46:49;;;;;;;15.27;8.40;;;6.80;91.60;;;;;;5103446;28;20485;-66
2022/11/12 05:49:16;;;;;;;12.67;8.20;;;6.80;91.70;;;;;;5102110;28;20449;-66
2022/11/12 05:51:43;;;;;;;9.77;8.37;;;6.80;91.70;;;;;;5103357;28;20457;-66
2022/11/12 05:54:10;;;;;;;8.60;7.70;;;6.80;91.70;;;;;;5104080;28;20799;-66
2022/11/12 05:56:38;;;;;;;11.30;7.97;;;6.80;91.80;;;;;;5103451;28;20446;-66
2022/11/12 05:59:08;;;;;;;8.77;7.37;;;6.80;91.80;;;;;;5102424;28;20450;-66
2022/11/12 06:01:42;;;;;;;10.43;7.50;;;6.80;91.90;;;;;;5102764;28;20441;-66
2022/11/12 06:04:09;;;;;;;10.60;7.37;;;6.80;91.90;;;;;;5102276;28;20438;-66
2022/11/12 06:06:36;;;;;;;8.40;7.17;;;6.70;91.90;;;;;;5102839;28;20485;-66
2022/11/12 06:09:03;;;;;;;10.70;8.60;;;6.70;91.80;;;;;;5112917;28;20450;-66
2022/11/12 06:11:29;;;;;;;9.03;7.60;;;6.70;92.00;;;;;;5105361;28;20437;-66
2022/11/12 06:13:56;;;;;;;9.37;7.80;;;6.70;92.10;;;;;;5103242;28;20469;-66
2022/11/12 06:16:24;;;;;;;9.30;8.10;;;6.70;92.00;;;;;;5102629;28;20456;-66
2022/11/12 06:18:51;;;;;;;8.63;6.90;;;6.80;92.10;;;;;;5104000;28;20454;-66
2022/11/12 06:21:21;;;;;;;13.47;7.90;;;6.80;92.10;;;;;;5104345;28;20457;-66
2022/11/12 06:23:50;;;;;;;9.37;7.50;;;6.80;92.10;;;;;;5102738;28;20454;-66
2022/11/12 06:26:17;;;;;;;10.30;7.13;;;6.80;92.10;;;;;;5104251;28;20471;-66
2022/11/12 06:28:44;;;;;;;8.13;7.33;;;6.80;92.10;;;;;;5106326;28;20457;-66
2022/11/12 06:31:11;;;;;;;15.50;7.90;;;6.80;92.10;;;;;;5105544;28;20959;-66
2022/11/12 06:33:39;;;;;;;10.53;6.87;;;6.80;92.10;;;;;;5102641;28;20473;-66
2022/11/12 06:36:07;;;;;;;9.23;7.33;;;6.70;92.10;;;;;;5103131;28;20472;-66
2022/11/12 06:38:37;;;;;;;8.67;7.07;;;6.70;92.10;;;;;;5103374;28;20495;-66
2022/11/12 06:41:04;;;;;;;10.17;7.40;;;6.70;92.10;;;;;;5105105;28;20502;-66
2022/11/12 06:43:32;;;;;;;10.20;8.70;;;6.70;92.10;;;;;;5101933;28;20499;-66
2022/11/12 06:46:00;;;;;;;7.97;7.17;;;6.60;91.90;;;;;;5102410;28;20916;-66
2022/11/12 06:48:28;;;;;;;10.00;7.47;;;6.60;91.80;;;;;;5104113;28;20515;-66
2022/11/12 06:50:56;;;;;;;10.77;7.67;;;6.60;91.80;;;;;;5105166;28;20447;-66
2022/11/12 06:53:23;;;;;;;9.53;7.83;;;6.60;91.80;;;;;;5105657;28;20470;-66
2022/11/12 06:55:50;;;;;;;10.23;7.40;;;6.60;91.80;;;;;;5106487;28;20787;-67
2022/11/12 06:58:16;;;;;;;9.53;8.00;;;6.60;91.80;;;;;;5106954;28;20471;-67
2022/11/12 07:00:43;;;;;;;9.40;7.90;;;6.60;91.90;;;;;;5104453;28;20970;-67
2022/11/12 07:03:13;;;;;;;9.87;6.60;;;6.60;91.90;;;;;;5104308;28;20472;-67
2022/11/12 07:05:40;;;;;;;7.73;6.93;;;6.60;92.00;;;;;;5103700;28;20477;-67
2022/11/12 07:08:08;;;;;;;10.03;8.50;;;6.60;92.10;;;;;;5104586;28;20457;-67
2022/11/12 07:10:35;;;;;;;13.50;9.07;;;6.70;92.20;;;;;;5105618;28;20455;-67
2022/11/12 07:13:02;;;;;;;10.27;8.40;;;6.70;92.40;;;;;;5106642;28;20542;-67
2022/11/12 07:15:28;;;;;;;10.83;8.30;;;6.80;92.70;;;;;;5105475;28;20445;-67
2022/11/12 07:17:55;;;;;;;10.37;8.60;;;6.80;92.80;;;;;;5106201;28;20446;-67
2022/11/12 07:20:22;;;;;;;9.33;7.70;;;6.90;93.10;;;;;;5104742;28;20460;-66
2022/11/12 07:22:48;;;;;;;9.37;7.70;;;6.90;93.40;;;;;;5103620;28;20477;-66
2022/11/12 07:25:16;;;;;;;10.33;7.93;;;6.90;93.60;;;;;;5105536;28;20454;-67
2022/11/12 07:27:43;;;;;;;13.90;8.00;;;7.00;93.80;;;;;;5107197;28;20431;-67
2022/11/12 07:30:12;;;;;;;9.27;6.83;;;7.00;94.30;;;;;;5105705;28;20437;-67
2022/11/12 07:32:38;;;;;;;9.50;8.30;;;7.00;94.00;;;;;;5105280;28;20466;-66
2022/11/12 07:35:06;;;;;;;10.60;8.63;;;7.10;94.10;;;;;;5105883;28;20423;-66
2022/11/12 07:37:35;;;;;;;13.53;9.13;;;7.10;94.10;;;;;;5106837;28;20446;-66
2022/11/12 07:40:02;;;;;;;16.30;11.30;;;7.20;94.40;;;;;;5105541;28;20943;-66
2022/11/12 07:42:32;;;;;;;10.67;9.37;;;7.30;94.60;;;;;;5105089;28;20467;-66
2022/11/12 07:44:59;;;;;;;9.97;8.60;;;7.40;94.80;;;;;;5102651;28;20797;-66
2022/11/12 07:47:26;;;;;;;12.37;8.53;;;7.40;94.90;;;;;;5103213;28;20493;-66
2022/11/12 07:49:52;;;;;;;13.73;10.37;;;7.40;95.00;;;;;;5104496;28;20451;-66
2022/11/12 07:52:19;;;;;;;11.20;9.17;;;7.50;95.10;;;;;;5105326;28;20481;-66
2022/11/12 07:54:46;;;;;;;12.53;9.90;;;7.50;95.20;;;;;;5106538;28;20471;-65
2022/11/12 07:57:13;;;;;;;13.40;10.23;;;7.60;95.40;;;;;;5105875;28;20435;-66
2022/11/12 07:59:41;;;;;;;13.23;10.00;;;7.60;95.50;;;;;;5104336;28;20450;-66
2022/11/12 08:02:09;;;;;;;12.90;10.87;;;7.70;95.60;;;;;;5106150;28;20463;-66
2022/11/12 08:04:35;;;;;;;9.90;8.80;;;7.70;95.60;;;;;;5106015;28;20458;-66
2022/11/12 08:07:02;;;;;;;13.17;9.57;;;7.70;95.80;;;;;;5106262;28;20482;-66
2022/11/12 08:09:29;;;;;;;11.77;9.60;;;7.80;96.00;;;;;;5104026;28;20454;-66
2022/11/12 08:11:56;;;;;;;12.33;10.00;;;7.80;96.10;;;;;;5102767;28;20446;-66
2022/11/12 08:14:23;;;;;;;11.57;10.00;;;7.80;96.30;;;;;;5104622;28;20444;-66
2022/11/12 08:16:51;;;;;;;11.43;10.10;;;7.90;96.40;;;;;;5104589;28;20443;-67
2022/11/12 08:19:18;;;;;;;10.53;8.97;;;7.90;96.40;;;;;;5107134;28;20452;-66
2022/11/12 08:21:44;;;;;;;12.73;9.50;;;8.00;96.50;;;;;;5106711;28;20440;-66
2022/11/12 08:24:11;;;;;;;12.17;9.47;;;8.10;96.60;;;;;;5106851;28;20951;-67
2022/11/12 08:26:38;;;;;;;9.50;8.50;;;8.10;96.60;;;;;;5106991;28;20480;-67
2022/11/12 08:29:05;;;;;;;12.07;10.77;;;8.20;96.70;;;;;;5105584;28;20442;-65
2022/11/12 08:31:32;;;;;;;11.70;10.50;;;8.20;96.70;;;;;;5104783;28;20477;-66
2022/11/12 08:34:10;;;;;;;13.67;10.10;;;8.30;97.10;;;;;;5104252;28;20464;-66
2022/11/12 08:36:37;;;;;;;10.53;9.43;;;8.40;96.70;;;;;;5103659;28;20498;-66
2022/11/12 08:39:04;;;;;;;12.90;10.23;;;8.50;96.60;;;;;;5104229;28;20454;-66
2022/11/12 08:41:31;;;;;;;10.63;9.50;;;8.60;96.50;;;;;;5103647;28;20838;-66
2022/11/12 08:43:58;;;;;;;12.60;10.43;;;8.60;96.50;;;;;;5102534;28;20488;-66
2022/11/12 08:46:24;;;;;;;11.20;9.70;;;8.70;96.40;;;;;;5103073;28;20465;-66
2022/11/12 08:48:51;;;;;;;10.47;9.47;;;8.80;96.40;;;;;;5102992;28;20441;-66
2022/11/12 08:51:19;;;;;;;10.17;9.17;;;8.80;96.20;;;;;;5109582;28;20835;-65
2022/11/12 08:53:46;;;;;;;11.20;10.00;;;8.90;96.20;;;;;;5108449;28;20469;-66
2022/11/12 08:56:13;;;;;;;10.70;9.60;;;9.00;96.00;;;;;;5106583;28;20822;-66
2022/11/12 08:58:39;;;;;;;15.60;10.23;;;9.00;96.10;;;;;;5106499;28;20430;-66
2022/11/12 09:01:08;;;;;;;9.73;8.70;;;9.10;96.10;;;;;;5104234;28;20459;-66
2022/11/12 09:03:35;;;;;;;9.50;8.50;;;9.10;96.00;;;;;;5105530;28;20455;-66
2022/11/12 09:06:03;;;;;;;12.10;10.43;;;9.20;95.90;;;;;;5104849;28;20932;-65
2022/11/12 09:08:34;;;;;;;12.73;8.67;;;9.30;95.90;;;;;;5105448;28;20431;-66
2022/11/12 09:11:00;;;;;;;11.27;8.23;;;9.40;95.80;;;;;;5104011;28;20430;-66
2022/11/12 09:13:27;;;;;;;10.27;9.37;;;9.40;95.40;;;;;;5104164;28;20470;-66
2022/11/12 09:15:59;;;;;;;9.30;8.40;;;9.50;95.30;;;;;;5105402;28;20429;-66
2022/11/12 09:18:25;;;;;;;9.50;8.60;;;9.60;95.30;;;;;;5105645;28;20433;-66
2022/11/12 09:20:52;;;;;;;10.93;9.47;;;9.70;95.40;;;;;;5103846;28;20453;-66
2022/11/12 09:23:19;;;;;;;9.77;8.77;;;9.80;95.30;;;;;;5104476;28;20500;-65
2022/11/12 09:25:47;;;;;;;9.50;8.50;;;9.90;95.20;;;;;;5103869;28;20542;-65
2022/11/12 09:28:15;;;;;;;9.53;8.63;;;10.00;94.80;;;;;;5104264;28;20475;-65
2022/11/12 09:30:45;;;;;;;10.20;8.27;;;10.10;94.70;;;;;;5104179;28;20453;-65
2022/11/12 09:33:12;;;;;;;8.50;7.60;;;10.20;94.30;;;;;;5107464;28;20466;-65
2022/11/12 09:35:38;;;;;;;11.57;7.43;;;10.30;94.10;;;;;;5106376;28;20443;-66
2022/11/12 09:38:05;;;;;;;9.80;8.87;;;10.30;94.00;;;;;;5103089;28;20423;-66
2022/11/12 09:40:58;;;;;;;10.87;8.70;;;10.40;93.80;;;;;;5102377;28;20426;-65
2022/11/12 09:43:29;;;;;;;9.50;7.90;;;10.40;93.80;;;;;;5102647;28;20470;-66
2022/11/12 09:46:00;;;;;;;9.77;8.70;;;10.60;93.90;;;;;;5101202;28;20836;-72
2022/11/12 09:48:32;;;;;;;10.87;9.30;;;10.60;93.90;;;;;;5104752;28;20429;-66
2022/11/12 09:51:02;;;;;;;10.30;9.30;;;10.70;93.70;;;;;;5106449;28;20427;-66
2022/11/12 09:53:34;;;;;;;9.90;8.63;;;10.80;93.70;;;;;;5105613;28;20464;-66
2022/11/12 09:56:06;;;;;;;11.57;10.40;;;10.80;93.80;;;;;;5105307;28;20446;-66
2022/11/12 09:58:33;;;;;;;12.70;9.80;;;11.00;93.90;;;;;;5105619;28;20428;-66
2022/11/12 10:01:10;;;;;;;11.80;8.77;;;11.00;93.80;;;;;;5105681;28;20457;-67
2022/11/12 10:03:44;;;;;;;10.20;9.20;;;11.20;93.90;;;;;;5106605;28;21016;-67
2022/11/12 10:06:16;;;;;;;10.03;8.33;;;11.30;93.50;;;;;;5106172;28;20430;-67
2022/11/12 10:08:52;;;;;;;8.90;8.10;;;11.40;93.60;;;;;;5108122;28;20430;-67
2022/11/12 10:16:41;;;;;;;11.03;9.07;;;11.70;93.40;;;;;;5106517;28;20496;-66
2022/11/12 10:17:52;;;;;;;12.73;8.50;;;11.80;93.30;;;;;;5109455;28;20882;-66
2022/11/12 10:20:24;;;;;;;11.93;9.37;;;12.00;92.90;;;;;;5110203;28;20427;-66
2022/11/12 10:23:07;;;;;;;13.77;9.97;;;12.10;92.70;;;;;;5111579;28;20455;-66
2022/11/12 10:25:35;;;;;;;9.43;8.40;;;12.30;92.50;;;;;;5112882;28;20420;-66
2022/11/12 10:28:14;;;;;;;12.60;8.80;;;12.40;92.30;;;;;;5109133;28;20489;-66
2022/11/12 10:30:42;;;;;;;9.23;8.30;;;12.60;92.20;;;;;;5111687;28;20422;-66
2022/11/12 10:33:14;;;;;;;9.77;8.73;;;12.80;91.80;;;;;;5111956;28;20468;-67
2022/11/12 10:35:41;;;;;;;9.20;7.67;;;12.90;91.40;;;;;;5110677;28;20445;-67
2022/11/12 10:38:14;;;;;;;10.00;7.80;;;13.10;91.00;;;;;;5112423;28;20420;-67
2022/11/12 10:40:42;;;;;;;8.23;7.50;;;13.30;90.40;;;;;;5112047;28;20432;-67
2022/11/12 10:43:23;;;;;;;8.03;7.20;;;13.50;90.30;;;;;;5108601;28;20466;-66
2022/11/12 10:45:50;;;;;;;11.90;7.87;;;13.70;89.10;;;;;;5108329;28;20470;-67
2022/11/12 10:49:00;;;;;;;7.17;6.47;;;14.00;88.00;;;;;;5111530;28;20475;-68
2022/11/12 10:51:31;;;;;;;9.60;6.40;;;14.40;86.70;;;;;;5061483;28;20454;-66
2022/11/12 10:53:58;;;;;;;8.27;6.57;;;14.70;84.20;;;;;;5110617;28;20495;-66
2022/11/12 10:56:28;;;;;;;9.00;5.93;;;15.00;82.60;;;;;;5111090;28;20475;-66
2022/11/12 10:59:15;;;;;;;6.93;6.03;;;15.20;80.60;;;;;;5110377;28;20834;-67
2022/11/12 11:01:43;;;;;;;6.47;5.90;;;15.40;79.40;;;;;;5111188;28;20428;-67
2022/11/12 11:04:35;;;;;;;6.50;5.83;;;15.60;78.50;;;;;;5110205;28;20424;-67
2022/11/12 11:07:05;;;;;;;6.17;5.57;;;15.90;78.40;;;;;;5090759;28;20480;-67
2022/11/12 11:09:33;;;;;;;8.00;5.80;;;16.10;76.10;;;;;;5110898;28;20427;-67
2022/11/12 11:12:00;;;;;;;6.20;5.43;;;16.40;74.40;;;;;;5110105;28;20464;-68
2022/11/12 11:14:34;;;;;;;7.90;6.03;;;16.60;73.90;;;;;;5108885;28;20443;-68
2022/11/12 11:17:07;;;;;;;5.93;5.33;;;16.80;73.40;;;;;;5109962;28;20424;-67
2022/11/12 11:19:39;;;;;;;6.20;5.70;;;17.00;72.50;;;;;;5109950;28;20432;-67
2022/11/12 11:22:35;;;;;;;6.20;5.63;;;17.30;71.30;;;;;;5109204;28;20460;-67
2022/11/12 11:25:19;;;;;;;7.00;6.40;;;17.60;70.70;;;;;;5109169;28;20436;-67
2022/11/12 11:27:59;;;;;;;7.73;6.40;;;18.00;68.90;;;;;;5109052;28;20475;-68
2022/11/12 11:30:27;;;;;;;7.03;6.40;;;18.30;67.80;;;;;;5109370;28;20428;-68
2022/11/12 11:33:04;;;;;;;6.80;6.00;;;18.70;65.40;;;;;;5108565;28;20463;-68
2022/11/12 11:35:45;;;;;;;6.60;6.00;;;19.00;63.60;;;;;;5108766;28;20435;-68
2022/11/12 11:38:27;;;;;;;6.40;5.80;;;19.30;61.80;;;;;;5108892;28;20416;-68
2022/11/12 11:41:06;;;;;;;5.97;5.47;;;19.70;60.10;;;;;;5109780;28;20427;-68
2022/11/12 11:43:47;;;;;;;7.03;5.30;;;20.00;58.70;;;;;;5108057;28;20467;-67
2022/11/12 11:46:27;;;;;;;5.30;4.63;;;20.20;57.80;;;;;;5107782;28;20430;-67
2022/11/12 11:49:12;;;;;;;8.80;5.77;;;20.40;56.90;;;;;;5107611;28;20459;-67
2022/11/12 11:51:48;;;;;;;5.03;4.60;;;20.60;56.00;;;;;;5107260;28;20451;-67
2022/11/12 11:54:41;;;;;;;5.67;5.00;;;20.80;55.30;;;;;;5108922;28;20435;-67
2022/11/12 11:57:15;;;;;;;5.50;5.00;;;21.00;54.00;;;;;;5108813;28;20888;-69
2022/11/12 11:59:55;;;;;;;4.50;4.10;;;21.10;53.40;;;;;;5108895;28;20428;-67
2022/11/12 12:02:38;;;;;;;4.57;4.17;;;21.40;53.00;;;;;;5109050;28;20467;-70
2022/11/12 12:05:20;;;;;;;4.80;4.40;;;21.60;52.10;;;;;;5108273;28;20436;-69
2022/11/12 12:07:55;;;;;;;4.23;3.90;;;21.90;51.60;;;;;;5109209;28;20471;-69
2022/11/12 12:10:25;;;;;;;5.60;4.23;;;22.10;50.10;;;;;;5110052;28;20496;-70
2022/11/12 12:13:00;;;;;;;5.17;4.37;;;22.30;50.00;;;;;;5106294;28;20475;-72
2022/11/12 12:15:44;;;;;;;4.20;3.80;;;22.50;49.20;;;;;;5100462;28;20435;-72
2022/11/12 12:18:25;;;;;;;5.10;4.60;;;22.70;48.50;;;;;;5101834;28;20502;-71
2022/11/12 12:20:58;;;;;;;6.20;4.10;;;23.00;48.20;;;;;;5110309;28;20432;-71
2022/11/12 12:23:29;;;;;;;4.67;4.27;;;23.20;47.30;;;;;;5110323;28;20974;-72
2022/11/12 12:25:59;;;;;;;4.20;3.80;;;23.30;46.80;;;;;;5109333;28;20428;-72
2022/11/12 12:28:34;;;;;;;3.90;3.53;;;23.50;46.20;;;;;;5110031;28;20507;-71
2022/11/12 12:31:07;;;;;;;8.87;4.13;;;23.60;45.50;;;;;;5111039;28;20806;-72
2022/11/12 12:33:40;;;;;;;4.23;3.93;;;23.70;45.40;;;;;;5112695;28;20468;-72
2022/11/12 12:36:11;;;;;;;4.20;3.90;;;23.80;45.00;;;;;;5110917;28;20448;-69
2022/11/12 12:38:43;;;;;;;3.97;3.67;;;24.00;44.50;;;;;;5116511;28;20422;-69
2022/11/12 12:41:16;;;;;;;7.33;3.80;;;24.10;44.60;;;;;;5112059;28;20428;-70
2022/11/12 12:43:48;;;;;;;5.07;3.73;;;24.20;44.30;;;;;;5107599;28;20468;-70
2022/11/12 12:46:20;;;;;;;3.43;3.13;;;24.40;44.00;;;;;;5108326;28;20428;-70
2022/11/12 12:48:50;;;;;;;3.77;3.47;;;24.50;43.60;;;;;;5109951;28;20480;-69
2022/11/12 12:51:18;;;;;;;4.53;4.10;;;24.60;43.10;;;;;;5111440;28;20497;-69
2022/11/12 12:53:44;;;;;;;5.03;3.40;;;24.60;42.20;;;;;;5110569;28;20479;-70
2022/11/12 12:56:45;;;;;;;4.70;3.70;;;24.60;42.30;;;;;;5106678;28;20448;-69
2022/11/12 12:59:21;;;;;;;3.53;3.23;;;24.60;42.40;;;;;;5104635;28;20452;-69
2022/11/12 13:01:57;;;;;;;5.33;3.10;;;24.60;42.20;;;;;;5106016;28;20440;-69
2022/11/12 13:04:53;;;;;;;3.87;3.47;;;24.60;42.30;;;;;;5108354;28;20420;-70
2022/11/12 13:07:38;;;;;;;4.20;3.57;;;24.70;42.20;;;;;;5088532;28;20487;-70
2022/11/12 13:10:34;;;;;;;4.60;3.70;;;24.70;42.30;;;;;;5108491;28;20428;-70
2022/11/12 13:13:03;;;;;;;6.00;3.37;;;24.40;42.30;;;;;;5108278;28;20475;-70
2022/11/12 13:15:43;;;;;;;4.33;3.53;;;24.20;42.80;;;;;;5109628;28;20448;-70
2022/11/12 13:18:10;;;;;;;4.13;3.70;;;24.10;43.40;;;;;;5108509;28;20435;-70
2022/11/12 13:20:42;;;;;;;3.47;3.17;;;24.00;43.40;;;;;;5104242;28;20532;-69
2022/11/12 13:26:47;;;;;;;3.90;2.93;;;24.10;43.00;;;;;;5096727;28;20923;-69
2022/11/12 13:29:43;;;;;;;3.97;3.67;;;23.70;43.30;;;;;;5099070;28;20464;-69
2022/11/12 13:32:29;;;;;;;4.30;3.90;;;23.40;44.20;;;;;;5095249;28;20499;-69